Hauptseite
METAR-TAF:

METAR-TAF

Flughäfen :

London Luton Airport

Luton, England

Breite: 51-52N, Länge: 000-22W, Höhe: 160 m

Beobachtung

Neuester Wetterbericht von vor 23 Minuten, um 15:50 UTC
Wind 8 kt aus West, variierte zwischen Südwest und Nord/Nordwest
Temperatur 27°C
Luftfeuchtigkeit 34%
Luftdruck 1012 hPa
Sichtweite 10 km oder mehr

METAR: EGGW 161550Z AUTO 26008KT 220V330 9999 NCD 27/10 Q1012

Zeit: 17:13 (16:13 UTC)

Prognose

Neuester Wetterbericht von vor 5 Stunden und 16 Minuten, um 10:57 UTC
Gültige Prognose vom 16 um 12 UTC bis 17 um 12 UTC
Wind 6 kt aus West
Sichtweite 10 km oder mehr
Leicht bewölkt in der Höhe von 4500 ft

TAF: EGGW 161057Z 1612/1712 27006KT 9999 FEW045

Wetterbeobachtungen und Prognosen von mehr als 4000 Flughäfen (METAR und TAF Bericht).

Die verfügbaren Stationen werden durch gelbe und rote Markierungen auf der Karte dargestellt.

Führen Sie die Maus auf sie, um den Namen der Station zu sehen.

Darauf klicken, um die Beobachtung von Wetterbeobachtungen und Prognosen zu sehen.

Um die Karte zu ändern : klicken Sie auf den grünen Tasten mit einem schwarzen Kreuz Zum Vergrößern, auf den grünen Button mit einem Gedankenstrich zu verkleinern, oder auf die grünen Pfeile für benachbarte Karten.


METAR-TAF: